Time;durP1;ratioP1;P1;durP2;ratioP2;P2;SDS_P1;SDS_P2;PMS_P1;PMS_P2;Temp;Humidity;BMP_temperature;BMP_pressure;BME280_temperature;BME280_humidity;BME280_pressure;Samples;Min_cycle;Max_cycle;Signal;HPM_P1;HPM_P2
2022/12/04 00:01:11;;;;;;;41.53;23.00;;;1.90;99.90;;;;;;5072412;28;20622;-80
2022/12/04 00:03:38;;;;;;;46.83;24.90;;;1.90;99.90;;;;;;5072237;28;20197;-79
2022/12/04 00:06:07;;;;;;;41.97;22.93;;;1.90;99.90;;;;;;5072357;28;20197;-78
2022/12/04 00:08:34;;;;;;;43.03;23.23;;;1.90;99.90;;;;;;5072119;28;20593;-78
2022/12/04 00:11:01;;;;;;;46.10;23.70;;;1.90;99.90;;;;;;5071917;28;20217;-80
2022/12/04 00:13:28;;;;;;;42.43;22.97;;;1.90;99.90;;;;;;5071451;28;20223;-79
2022/12/04 00:15:56;;;;;;;44.10;25.23;;;1.80;99.90;;;;;;5072318;28;20223;-79
2022/12/04 00:18:23;;;;;;;44.70;25.40;;;1.80;99.90;;;;;;5074341;28;20668;-78
2022/12/04 00:20:50;;;;;;;42.17;23.07;;;1.90;99.90;;;;;;5091881;28;20447;-78
2022/12/04 00:23:17;;;;;;;40.43;23.43;;;1.90;99.90;;;;;;5092440;28;20204;-79
2022/12/04 00:25:47;;;;;;;42.17;23.37;;;1.80;99.90;;;;;;5082890;28;20197;-80
2022/12/04 00:28:15;;;;;;;39.63;23.03;;;1.80;99.90;;;;;;5071268;28;20339;-78
2022/12/04 00:30:42;;;;;;;47.63;23.80;;;1.80;99.90;;;;;;5088706;28;20225;-79
2022/12/04 00:33:11;;;;;;;43.23;23.60;;;1.80;99.90;;;;;;5096432;28;20506;-79
2022/12/04 00:35:37;;;;;;;45.03;23.20;;;1.80;99.90;;;;;;5084812;28;20549;-79
2022/12/04 00:38:04;;;;;;;42.57;24.20;;;1.80;99.90;;;;;;5076419;28;20201;-78
2022/12/04 00:40:31;;;;;;;45.07;24.20;;;1.80;99.90;;;;;;5075822;28;20194;-78
2022/12/04 00:42:58;;;;;;;43.13;22.90;;;1.80;99.90;;;;;;5075703;28;20207;-75
2022/12/04 00:45:25;;;;;;;41.30;22.67;;;1.70;99.90;;;;;;5075856;28;20211;-78
2022/12/04 00:47:52;;;;;;;43.43;22.50;;;1.70;99.90;;;;;;5074568;28;20307;-77
2022/12/04 00:50:20;;;;;;;43.60;24.57;;;1.70;99.90;;;;;;5075861;28;20308;-76
2022/12/04 00:52:47;;;;;;;43.10;25.30;;;1.70;99.90;;;;;;5075137;28;20204;-78
2022/12/04 00:55:14;;;;;;;43.37;24.33;;;1.70;99.90;;;;;;5075042;28;20197;-78
2022/12/04 00:57:40;;;;;;;46.63;24.83;;;1.60;99.90;;;;;;5074981;28;20514;-79
2022/12/04 01:00:08;;;;;;;45.87;24.43;;;1.70;99.90;;;;;;5075576;28;20284;-74
2022/12/04 01:02:35;;;;;;;46.60;24.30;;;1.70;99.90;;;;;;5074615;28;20205;-74
2022/12/04 01:05:02;;;;;;;51.47;25.33;;;1.70;99.90;;;;;;5075565;28;20201;-73
2022/12/04 01:07:31;;;;;;;48.07;24.77;;;1.70;99.90;;;;;;5074463;28;20197;-77
2022/12/04 01:09:58;;;;;;;43.63;25.17;;;1.70;99.90;;;;;;5074845;28;20323;-74
2022/12/04 01:12:25;;;;;;;42.33;23.77;;;1.70;99.90;;;;;;5074967;28;20613;-73
2022/12/04 01:14:52;;;;;;;41.33;22.23;;;1.60;99.90;;;;;;5075223;28;20205;-77
2022/12/04 01:17:19;;;;;;;45.97;25.73;;;1.70;99.90;;;;;;5073998;28;20308;-77
2022/12/04 01:19:46;;;;;;;47.37;24.97;;;1.70;99.90;;;;;;5074698;28;20247;-74
2022/12/04 01:22:13;;;;;;;42.87;24.20;;;1.70;99.90;;;;;;5074522;28;20205;-75
2022/12/04 01:24:41;;;;;;;43.23;22.87;;;1.70;99.90;;;;;;5074195;28;20201;-75
2022/12/04 01:27:08;;;;;;;47.00;26.63;;;1.70;99.90;;;;;;5074666;28;20204;-75
2022/12/04 01:29:35;;;;;;;46.40;25.37;;;1.70;99.90;;;;;;5074358;28;20608;-76
2022/12/04 01:32:02;;;;;;;48.73;24.90;;;1.70;99.90;;;;;;5073991;28;20784;-75
2022/12/04 01:34:29;;;;;;;50.77;26.23;;;1.70;99.90;;;;;;5074281;28;20684;-75
2022/12/04 01:36:55;;;;;;;48.03;25.37;;;1.70;99.90;;;;;;5073992;28;20221;-75
2022/12/04 01:39:22;;;;;;;45.87;25.27;;;1.70;99.90;;;;;;5074831;28;20208;-75
2022/12/04 01:41:51;;;;;;;49.27;25.83;;;1.70;99.90;;;;;;5074579;28;20189;-75
2022/12/04 01:44:19;;;;;;;44.03;24.30;;;1.70;99.90;;;;;;5072458;28;20201;-76
2022/12/04 01:46:50;;;;;;;48.00;25.73;;;1.70;99.90;;;;;;5074537;28;20211;-74
2022/12/04 01:49:23;;;;;;;50.23;25.50;;;1.70;99.90;;;;;;5074333;28;20664;-74
2022/12/04 01:51:52;;;;;;;49.93;26.90;;;1.70;99.90;;;;;;5073744;28;20621;-75
2022/12/04 01:54:27;;;;;;;48.10;25.70;;;1.80;99.90;;;;;;5103064;28;20206;-74
2022/12/04 01:57:03;;;;;;;47.90;25.07;;;1.80;99.90;;;;;;5074618;28;20276;-76
2022/12/04 01:59:35;;;;;;;45.77;25.27;;;1.80;99.90;;;;;;5073208;28;20490;-75
2022/12/04 02:02:05;;;;;;;48.83;27.40;;;1.90;99.90;;;;;;5074394;28;20252;-75
2022/12/04 02:04:33;;;;;;;48.23;25.93;;;1.80;99.90;;;;;;5075243;28;20216;-80
2022/12/04 02:07:00;;;;;;;49.17;26.67;;;1.90;99.90;;;;;;5073760;28;20232;-75
2022/12/04 02:09:29;;;;;;;50.17;28.30;;;1.80;99.90;;;;;;5074010;28;20197;-76
2022/12/04 02:12:08;;;;;;;48.97;26.40;;;1.80;99.90;;;;;;5073520;28;20305;-76
2022/12/04 02:14:46;;;;;;;49.70;26.67;;;1.80;99.90;;;;;;5073683;28;20201;-75
2022/12/04 02:17:19;;;;;;;51.13;26.80;;;1.80;99.90;;;;;;5074390;28;20220;-81
2022/12/04 02:20:00;;;;;;;49.80;27.03;;;1.80;99.90;;;;;;5074903;28;20189;-79
2022/12/04 02:22:44;;;;;;;49.03;27.43;;;1.80;99.90;;;;;;5078029;28;20203;-78
2022/12/04 02:25:22;;;;;;;49.37;26.47;;;1.80;99.90;;;;;;5095074;28;20287;-75
2022/12/04 02:28:02;;;;;;;47.57;25.67;;;1.80;99.90;;;;;;5092032;28;20531;-75
2022/12/04 02:30:31;;;;;;;46.20;25.90;;;1.80;99.90;;;;;;5093868;28;20303;-75
2022/12/04 02:33:03;;;;;;;50.50;26.50;;;1.90;99.90;;;;;;5093961;28;20296;-76
2022/12/04 02:35:35;;;;;;;47.10;26.30;;;1.80;99.90;;;;;;5093846;28;20700;-80
2022/12/04 02:38:06;;;;;;;45.80;26.13;;;1.80;99.90;;;;;;5075084;28;20229;-75
2022/12/04 02:40:41;;;;;;;48.47;25.83;;;1.90;99.90;;;;;;5073113;28;20185;-74
2022/12/04 02:43:15;;;;;;;47.33;26.43;;;1.90;99.90;;;;;;5091916;28;20623;-78
2022/12/04 02:45:46;;;;;;;44.60;24.93;;;2.00;99.90;;;;;;5085818;28;20217;-75
2022/12/04 02:48:18;;;;;;;44.10;25.20;;;1.90;99.90;;;;;;5072730;28;20489;-80
2022/12/04 02:50:48;;;;;;;42.80;24.30;;;2.00;99.90;;;;;;5073327;28;20225;-77
2022/12/04 02:53:18;;;;;;;49.00;25.80;;;2.00;99.90;;;;;;5073416;28;20209;-75
2022/12/04 02:55:49;;;;;;;46.77;25.77;;;1.90;99.90;;;;;;5072771;28;20211;-76
2022/12/04 02:58:26;;;;;;;47.87;26.77;;;2.00;99.90;;;;;;5073137;28;20189;-76
2022/12/04 03:00:54;;;;;;;47.47;27.73;;;2.00;99.90;;;;;;5073271;28;20238;-73
2022/12/04 03:03:25;;;;;;;49.13;25.93;;;2.00;99.90;;;;;;5072333;28;20593;-75
2022/12/04 03:06:00;;;;;;;46.50;25.93;;;2.00;99.90;;;;;;5086583;28;20204;-76
2022/12/04 03:08:32;;;;;;;47.93;25.63;;;2.00;99.90;;;;;;5092761;28;20200;-73
2022/12/04 03:11:00;;;;;;;50.60;27.83;;;2.00;99.90;;;;;;5082529;28;20205;-76
2022/12/04 03:13:32;;;;;;;44.20;24.40;;;2.00;99.90;;;;;;5072981;28;20202;-73
2022/12/04 03:16:03;;;;;;;44.00;25.43;;;2.00;99.90;;;;;;5072132;28;20232;-74
2022/12/04 03:18:34;;;;;;;47.23;27.97;;;2.00;99.90;;;;;;5072315;28;20193;-75
2022/12/04 03:21:04;;;;;;;44.57;24.63;;;2.00;99.90;;;;;;5072499;28;20284;-75
2022/12/04 03:23:35;;;;;;;43.90;25.93;;;2.00;99.90;;;;;;5075798;28;20219;-79
2022/12/04 03:26:07;;;;;;;49.40;27.27;;;2.00;99.90;;;;;;5093399;28;20975;-79
2022/12/04 03:28:46;;;;;;;46.30;26.53;;;2.00;99.90;;;;;;5092476;28;20239;-79
2022/12/04 03:31:17;;;;;;;51.07;27.40;;;2.00;99.90;;;;;;5092197;28;20220;-78
2022/12/04 03:33:47;;;;;;;44.50;26.60;;;2.10;99.90;;;;;;5080893;28;20616;-77
2022/12/04 03:36:18;;;;;;;48.40;26.40;;;2.10;99.90;;;;;;5072551;28;20288;-78
2022/12/04 03:38:50;;;;;;;43.97;25.50;;;2.10;99.90;;;;;;5071863;28;20670;-76
2022/12/04 03:41:24;;;;;;;44.00;26.07;;;2.10;99.90;;;;;;5072095;28;20186;-75
2022/12/04 03:43:57;;;;;;;50.00;28.00;;;2.10;99.90;;;;;;5071401;28;20285;-74
2022/12/04 03:46:29;;;;;;;47.07;25.90;;;2.10;99.90;;;;;;5072246;28;20201;-80
2022/12/04 03:49:00;;;;;;;47.50;26.23;;;2.10;99.90;;;;;;5072069;28;20201;-80
2022/12/04 03:51:33;;;;;;;43.27;26.17;;;2.10;99.90;;;;;;5071652;28;20209;-80
2022/12/04 03:54:05;;;;;;;45.13;24.60;;;2.10;99.90;;;;;;5072568;28;20193;-79
2022/12/04 03:56:36;;;;;;;49.93;27.53;;;2.10;99.90;;;;;;5072227;28;20612;-80
2022/12/04 03:59:10;;;;;;;51.90;27.83;;;2.10;99.90;;;;;;5090423;28;20203;-79
2022/12/04 04:01:42;;;;;;;49.70;28.20;;;2.00;99.90;;;;;;5083175;28;20200;-79
2022/12/04 04:04:14;;;;;;;47.90;27.63;;;2.10;99.90;;;;;;5072256;28;20224;-80
2022/12/04 04:06:47;;;;;;;51.17;27.50;;;2.00;99.90;;;;;;5070522;28;20227;-76
2022/12/04 04:09:18;;;;;;;51.37;28.07;;;2.10;99.90;;;;;;5072345;28;20193;-80
2022/12/04 04:11:49;;;;;;;46.10;26.33;;;2.10;99.90;;;;;;5070894;28;20224;-79
2022/12/04 04:25:38;;;;;;;48.93;27.43;;;2.10;99.90;;;;;;5071798;28;20220;-79
2022/12/04 04:28:05;;;;;;;51.00;27.37;;;2.10;99.90;;;;;;5071775;28;20228;-80
2022/12/04 04:30:34;;;;;;;46.60;27.40;;;2.00;99.90;;;;;;5071841;28;20201;-80
2022/12/04 04:33:11;;;;;;;50.87;28.50;;;2.00;99.90;;;;;;5071790;28;20203;-80
2022/12/04 04:35:46;;;;;;;51.50;28.40;;;2.00;99.90;;;;;;5071910;28;20181;-77
2022/12/04 04:38:21;;;;;;;50.00;28.50;;;2.00;99.90;;;;;;5071797;28;20213;-75
2022/12/04 04:40:54;;;;;;;49.80;28.00;;;2.00;99.90;;;;;;5070817;28;20195;-77
2022/12/04 04:43:25;;;;;;;53.27;29.33;;;2.00;99.90;;;;;;5071575;28;20204;-79
2022/12/04 04:45:58;;;;;;;52.20;28.13;;;2.00;99.90;;;;;;5072150;28;20276;-81
2022/12/04 04:48:31;;;;;;;53.63;28.97;;;2.00;99.90;;;;;;5071093;28;20229;-79
2022/12/04 04:51:00;;;;;;;53.20;28.57;;;2.00;99.90;;;;;;5071758;28;20294;-80
2022/12/04 04:53:34;;;;;;;54.73;29.23;;;2.10;99.90;;;;;;5071860;28;20518;-78
2022/12/04 04:56:02;;;;;;;52.23;29.63;;;2.10;99.90;;;;;;5071116;28;20289;-75
2022/12/04 04:58:29;;;;;;;51.07;29.43;;;2.10;99.90;;;;;;5071315;28;20236;-77
2022/12/04 05:01:00;;;;;;;50.73;27.63;;;2.10;99.90;;;;;;5071098;28;20197;-77
2022/12/04 05:03:27;;;;;;;50.53;28.43;;;2.10;99.90;;;;;;5072020;28;20189;-77
2022/12/04 05:05:54;;;;;;;51.93;28.70;;;2.00;99.90;;;;;;5071477;28;20288;-79
2022/12/04 05:08:22;;;;;;;52.63;29.57;;;2.10;99.90;;;;;;5071082;28;20586;-77
2022/12/04 05:10:49;;;;;;;51.03;28.47;;;2.10;99.90;;;;;;5071853;28;20217;-77
2022/12/04 05:13:16;;;;;;;51.93;28.23;;;2.10;99.90;;;;;;5071638;28;20207;-79
2022/12/04 05:15:43;;;;;;;50.40;28.80;;;2.10;99.90;;;;;;5070142;28;20631;-78
2022/12/04 05:18:11;;;;;;;50.37;28.97;;;2.10;99.90;;;;;;5073583;28;20201;-80
2022/12/04 05:20:37;;;;;;;50.00;27.67;;;2.00;99.90;;;;;;5075513;28;20546;-81
2022/12/04 05:23:04;;;;;;;53.07;30.27;;;2.00;99.90;;;;;;5074290;28;20725;-80
2022/12/04 05:25:31;;;;;;;56.30;29.37;;;2.00;99.90;;;;;;5074949;28;20197;-80
2022/12/04 05:27:58;;;;;;;59.60;30.57;;;2.00;99.90;;;;;;5075003;28;20244;-80
2022/12/04 05:30:25;;;;;;;49.93;28.17;;;2.10;99.90;;;;;;5074569;28;20623;-80
2022/12/04 05:32:51;;;;;;;53.30;30.83;;;2.10;99.90;;;;;;5074761;28;20225;-80
2022/12/04 05:35:20;;;;;;;50.97;28.10;;;2.10;99.90;;;;;;5075123;28;20594;-80
2022/12/04 05:37:46;;;;;;;57.57;29.63;;;2.10;99.90;;;;;;5074548;28;20198;-79
2022/12/04 05:40:13;;;;;;;52.20;28.77;;;2.10;99.90;;;;;;5074878;28;20619;-79
2022/12/04 05:42:40;;;;;;;56.03;30.97;;;2.10;99.90;;;;;;5074611;28;20201;-79
2022/12/04 05:45:08;;;;;;;54.47;29.37;;;2.20;99.90;;;;;;5074488;28;20776;-80
2022/12/04 05:47:39;;;;;;;48.83;27.97;;;2.30;99.90;;;;;;5074294;28;20870;-79
2022/12/04 05:50:07;;;;;;;53.87;30.40;;;2.30;99.90;;;;;;5073927;28;20205;-80
2022/12/04 05:52:35;;;;;;;53.77;29.63;;;2.20;99.90;;;;;;5074797;28;20219;-81
2022/12/04 05:55:02;;;;;;;51.83;29.40;;;2.20;99.90;;;;;;5074832;28;20208;-80
2022/12/04 05:57:29;;;;;;;52.37;29.83;;;2.20;99.90;;;;;;5073572;28;20198;-81
2022/12/04 05:59:56;;;;;;;54.07;30.80;;;2.20;99.90;;;;;;5074575;28;20201;-81
2022/12/04 06:02:23;;;;;;;55.73;30.27;;;2.20;99.90;;;;;;5074284;28;20198;-81
2022/12/04 06:04:50;;;;;;;50.50;27.50;;;2.20;99.90;;;;;;5074189;28;20575;-80
2022/12/04 06:07:17;;;;;;;54.67;29.20;;;2.30;99.90;;;;;;5094790;28;20284;-81
2022/12/04 06:09:45;;;;;;;51.90;28.67;;;2.20;99.90;;;;;;5094748;28;20506;-80
2022/12/04 06:12:12;;;;;;;54.90;29.57;;;2.20;99.90;;;;;;5093946;28;20277;-80
2022/12/04 06:14:39;;;;;;;49.70;28.87;;;2.20;99.90;;;;;;5084963;28;20294;-80
2022/12/04 06:17:06;;;;;;;50.13;28.73;;;2.20;99.90;;;;;;5074367;28;20221;-80
2022/12/04 06:19:33;;;;;;;51.60;29.83;;;2.20;99.90;;;;;;5073533;28;20476;-79
2022/12/04 06:21:59;;;;;;;54.10;28.77;;;2.10;99.90;;;;;;5073780;28;20198;-81
2022/12/04 06:24:26;;;;;;;53.77;29.00;;;2.10;99.90;;;;;;5074103;28;20209;-79
2022/12/04 06:26:58;;;;;;;50.83;29.17;;;2.10;99.90;;;;;;5073417;28;20613;-77
2022/12/04 06:29:25;;;;;;;48.27;27.40;;;2.20;99.90;;;;;;5073594;28;20284;-76
2022/12/04 06:31:52;;;;;;;48.03;28.67;;;2.20;99.90;;;;;;5073987;28;20217;-79
2022/12/04 06:34:19;;;;;;;48.80;28.93;;;2.10;99.90;;;;;;5073137;28;20288;-80
2022/12/04 06:36:45;;;;;;;53.97;30.70;;;2.10;99.90;;;;;;5073630;28;20316;-79
2022/12/04 06:39:12;;;;;;;49.73;28.57;;;2.10;99.90;;;;;;5073715;28;20740;-80
2022/12/04 06:41:39;;;;;;;50.83;29.50;;;2.10;99.90;;;;;;5073375;28;20289;-79
2022/12/04 06:44:08;;;;;;;50.90;29.70;;;2.10;99.90;;;;;;5073953;28;20231;-80
2022/12/04 06:46:35;;;;;;;52.50;28.60;;;2.10;99.90;;;;;;5073303;28;20185;-80
2022/12/04 06:49:03;;;;;;;51.87;29.70;;;2.20;99.90;;;;;;5085164;28;20205;-80
2022/12/04 06:51:32;;;;;;;51.97;28.70;;;2.10;99.90;;;;;;5092829;28;20213;-79
2022/12/04 06:53:59;;;;;;;52.53;29.37;;;2.10;99.90;;;;;;5072694;28;20296;-79
2022/12/04 06:56:28;;;;;;;52.37;30.00;;;2.10;99.90;;;;;;5073186;28;20866;-80
2022/12/04 06:58:56;;;;;;;54.97;28.63;;;2.10;99.90;;;;;;5073516;28;20541;-80
2022/12/04 07:01:26;;;;;;;50.53;28.40;;;2.10;99.90;;;;;;5072356;28;20297;-79
2022/12/04 07:03:54;;;;;;;54.00;29.87;;;2.10;99.90;;;;;;5073628;28;20472;-80
2022/12/04 07:06:23;;;;;;;54.93;30.40;;;2.10;99.90;;;;;;5073087;28;20288;-78
2022/12/04 07:08:52;;;;;;;53.30;29.93;;;2.10;99.90;;;;;;5072853;28;20205;-80
2022/12/04 07:11:20;;;;;;;57.70;29.90;;;2.10;99.90;;;;;;5072858;28;20212;-78
2022/12/04 07:13:47;;;;;;;51.40;28.60;;;2.10;99.90;;;;;;5073333;28;20513;-79
2022/12/04 07:16:16;;;;;;;54.70;30.50;;;2.10;99.90;;;;;;5072453;28;20304;-81
2022/12/04 07:18:44;;;;;;;54.23;29.57;;;2.10;99.90;;;;;;5072986;28;20550;-79
2022/12/04 07:21:14;;;;;;;51.53;28.83;;;2.10;99.90;;;;;;5092401;28;20203;-80
2022/12/04 07:23:41;;;;;;;56.20;30.37;;;2.10;99.90;;;;;;5103741;28;20213;-76
2022/12/04 07:26:10;;;;;;;56.00;29.57;;;2.10;99.90;;;;;;5072957;28;20193;-79
2022/12/04 07:28:38;;;;;;;56.23;29.77;;;2.10;99.90;;;;;;5071764;28;20260;-79
2022/12/04 07:31:05;;;;;;;56.20;29.93;;;2.10;99.90;;;;;;5072273;28;20673;-80
2022/12/04 07:33:32;;;;;;;57.30;31.43;;;2.10;99.90;;;;;;5072604;28;20204;-79
2022/12/04 07:36:03;;;;;;;54.57;29.43;;;2.10;99.90;;;;;;5072378;28;20207;-80
2022/12/04 07:38:30;;;;;;;58.90;31.27;;;2.10;99.90;;;;;;5072028;28;20213;-79
2022/12/04 07:40:57;;;;;;;54.70;31.63;;;2.10;99.90;;;;;;5071838;28;20921;-80
2022/12/04 07:43:25;;;;;;;56.23;30.93;;;2.10;99.90;;;;;;5071998;28;20450;-80
2022/12/04 07:45:53;;;;;;;55.47;29.50;;;2.10;99.90;;;;;;5072734;28;20209;-79
2022/12/04 07:48:19;;;;;;;59.43;32.87;;;2.10;99.90;;;;;;5072764;28;20197;-80
2022/12/04 07:50:47;;;;;;;50.97;28.77;;;2.20;99.90;;;;;;5071587;28;20216;-80
2022/12/04 07:53:15;;;;;;;54.23;29.27;;;2.20;99.90;;;;;;5072097;28;20221;-77
2022/12/04 07:55:42;;;;;;;52.97;30.60;;;2.20;99.90;;;;;;5071895;28;20258;-78
2022/12/04 07:58:09;;;;;;;48.63;27.77;;;2.20;99.90;;;;;;5071477;28;20239;-80
2022/12/04 08:00:36;;;;;;;54.93;28.23;;;2.30;99.90;;;;;;5071746;28;20197;-80
2022/12/04 08:03:03;;;;;;;44.57;25.60;;;2.30;99.90;;;;;;5072631;28;20208;-80
2022/12/04 08:05:29;;;;;;;47.77;26.60;;;2.30;99.90;;;;;;5071815;28;20193;-79
2022/12/04 08:07:56;;;;;;;51.43;27.83;;;2.30;99.90;;;;;;5072390;28;20200;-82
2022/12/04 08:10:24;;;;;;;46.33;25.63;;;2.30;99.90;;;;;;5072546;28;20531;-81
2022/12/04 08:12:51;;;;;;;46.70;26.37;;;2.20;99.90;;;;;;5071310;28;20217;-82
2022/12/04 08:15:18;;;;;;;47.53;26.03;;;2.30;99.90;;;;;;5072659;28;20217;-81
2022/12/04 08:17:45;;;;;;;49.53;28.10;;;2.30;99.90;;;;;;5072513;28;20563;-81
2022/12/04 08:20:12;;;;;;;49.60;27.90;;;2.30;99.90;;;;;;5073133;28;20252;-82
2022/12/04 08:22:39;;;;;;;53.03;28.93;;;2.30;99.90;;;;;;5072720;28;20546;-82
2022/12/04 08:25:06;;;;;;;50.67;27.77;;;2.30;99.90;;;;;;5072700;28;20199;-81
2022/12/04 08:27:35;;;;;;;51.90;28.73;;;2.30;99.90;;;;;;5080769;28;20224;-79
2022/12/04 08:30:02;;;;;;;55.43;29.90;;;2.30;99.90;;;;;;5092617;28;20698;-81
2022/12/04 08:32:29;;;;;;;53.93;28.70;;;2.30;99.90;;;;;;5075220;28;20225;-81
2022/12/04 08:34:56;;;;;;;58.27;29.17;;;2.20;99.90;;;;;;5083728;28;20204;-80
2022/12/04 08:37:23;;;;;;;53.30;29.03;;;2.30;99.90;;;;;;5092663;28;20195;-80
2022/12/04 08:39:49;;;;;;;51.93;28.93;;;2.30;99.90;;;;;;5091850;28;20196;-80
2022/12/04 08:42:16;;;;;;;52.67;29.63;;;2.30;99.90;;;;;;5076574;28;20284;-80
2022/12/04 08:44:47;;;;;;;58.07;31.63;;;2.30;99.90;;;;;;5076693;28;20204;-79
2022/12/04 08:47:14;;;;;;;51.20;28.63;;;2.30;99.90;;;;;;5097487;28;20193;-80
2022/12/04 08:49:41;;;;;;;51.03;28.63;;;2.30;99.90;;;;;;5100823;28;20211;-77
2022/12/04 08:52:08;;;;;;;50.73;29.57;;;2.30;99.90;;;;;;5095832;28;20235;-79
2022/12/04 08:54:35;;;;;;;51.87;28.17;;;2.30;99.90;;;;;;5105613;28;20202;-79
2022/12/04 08:57:02;;;;;;;52.07;28.30;;;2.20;99.90;;;;;;5103386;28;20619;-80
2022/12/04 08:59:29;;;;;;;58.23;30.47;;;2.20;99.90;;;;;;5103108;28;20223;-79
2022/12/04 09:01:57;;;;;;;53.23;30.10;;;2.20;99.90;;;;;;5104797;28;20282;-79
2022/12/04 09:04:24;;;;;;;51.87;28.77;;;2.20;99.90;;;;;;5095000;28;20214;-80
2022/12/04 09:06:50;;;;;;;56.10;30.37;;;2.20;99.90;;;;;;5076089;28;20201;-76
2022/12/04 09:09:17;;;;;;;52.07;28.33;;;2.20;99.90;;;;;;5093479;28;20299;-79
2022/12/04 09:11:46;;;;;;;53.03;28.13;;;2.20;99.90;;;;;;5096238;28;20202;-79
2022/12/04 09:14:13;;;;;;;54.17;30.00;;;2.20;99.90;;;;;;5093906;28;20203;-80
2022/12/04 09:16:39;;;;;;;51.83;29.90;;;2.20;99.90;;;;;;5095620;28;20313;-80
2022/12/04 09:19:08;;;;;;;52.23;30.23;;;2.20;99.90;;;;;;5095702;28;20236;-80
2022/12/04 09:21:35;;;;;;;55.33;29.97;;;2.10;99.90;;;;;;5094452;28;20600;-79
2022/12/04 09:24:02;;;;;;;55.63;29.67;;;2.10;99.90;;;;;;5095668;28;20517;-79
2022/12/04 09:26:31;;;;;;;55.80;29.63;;;2.10;99.90;;;;;;5095580;28;20220;-81
2022/12/04 09:28:59;;;;;;;53.90;28.20;;;2.10;99.90;;;;;;5083448;28;20653;-81
2022/12/04 09:31:26;;;;;;;51.30;29.03;;;2.20;99.90;;;;;;5075181;28;20202;-77
2022/12/04 09:33:53;;;;;;;50.23;27.93;;;2.20;99.90;;;;;;5075404;28;20518;-78
2022/12/04 09:36:22;;;;;;;54.60;30.47;;;2.20;99.90;;;;;;5074379;28;20197;-78
2022/12/04 09:38:51;;;;;;;55.83;29.13;;;2.20;99.90;;;;;;5074176;28;20201;-78
2022/12/04 09:41:51;;;;;;;53.37;30.87;;;2.20;99.90;;;;;;5075281;28;20197;-78
2022/12/04 09:44:23;;;;;;;51.90;28.33;;;2.20;99.90;;;;;;5026593;28;20204;-79
2022/12/04 09:46:54;;;;;;;51.50;28.53;;;2.20;99.90;;;;;;5074651;28;20197;-80
2022/12/04 09:49:26;;;;;;;50.70;30.10;;;2.20;99.90;;;;;;5074635;28;20737;-79
2022/12/04 09:51:58;;;;;;;49.63;27.03;;;2.20;99.90;;;;;;5084494;28;20196;-79
2022/12/04 09:54:31;;;;;;;56.27;29.07;;;2.20;99.90;;;;;;5114582;28;20592;-80
2022/12/04 09:57:02;;;;;;;49.80;27.47;;;2.20;99.90;;;;;;5108177;28;20480;-74
2022/12/04 09:59:32;;;;;;;53.77;28.53;;;2.30;99.90;;;;;;5114364;28;20282;-78
2022/12/04 10:02:03;;;;;;;50.03;27.50;;;2.30;99.90;;;;;;5092656;28;20220;-78
2022/12/04 10:04:30;;;;;;;48.93;27.27;;;2.30;99.90;;;;;;5092441;28;20196;-75
2022/12/04 10:07:07;;;;;;;46.97;26.97;;;2.20;99.90;;;;;;5082492;28;20200;-75
2022/12/04 10:09:43;;;;;;;48.67;26.50;;;2.30;99.90;;;;;;5101705;28;20631;-76
2022/12/04 10:12:22;;;;;;;45.57;26.93;;;2.20;99.90;;;;;;5113037;28;20195;-76
2022/12/04 10:15:01;;;;;;;48.00;26.30;;;2.20;99.90;;;;;;5088701;28;20208;-76
2022/12/04 10:17:57;;;;;;;46.40;27.17;;;2.30;99.90;;;;;;5089876;28;20192;-76
2022/12/04 10:20:43;;;;;;;44.87;24.10;;;2.20;99.90;;;;;;5090977;28;20224;-77
2022/12/04 10:23:23;;;;;;;43.17;23.50;;;2.30;99.90;;;;;;5083530;28;20280;-75
2022/12/04 10:25:51;;;;;;;42.97;23.60;;;2.30;99.90;;;;;;5075855;28;20282;-76
2022/12/04 10:28:24;;;;;;;41.67;23.67;;;2.30;99.90;;;;;;5090098;28;20311;-77
2022/12/04 10:30:53;;;;;;;40.63;23.47;;;2.30;99.90;;;;;;5093583;28;20219;-74
2022/12/04 10:33:27;;;;;;;42.33;24.03;;;2.30;99.90;;;;;;5092769;28;20209;-76
2022/12/04 10:35:54;;;;;;;44.47;23.77;;;2.30;99.90;;;;;;5091591;28;20279;-76
2022/12/04 10:38:32;;;;;;;43.27;23.13;;;2.20;99.90;;;;;;5092876;28;20197;-76
2022/12/04 10:41:03;;;;;;;39.47;22.30;;;2.20;99.90;;;;;;5090343;28;20300;-74
2022/12/04 10:43:38;;;;;;;41.27;23.47;;;2.20;99.90;;;;;;5090585;28;20190;-76
2022/12/04 10:46:07;;;;;;;38.53;22.20;;;2.20;99.90;;;;;;5090707;28;20192;-77
2022/12/04 10:48:38;;;;;;;38.00;22.50;;;2.20;99.90;;;;;;5092595;28;20589;-73
2022/12/04 10:51:05;;;;;;;40.80;21.80;;;2.20;99.90;;;;;;5090658;28;20221;-74
2022/12/04 10:53:36;;;;;;;39.67;22.37;;;2.20;99.90;;;;;;5088663;28;20227;-74
2022/12/04 10:56:11;;;;;;;39.07;22.33;;;2.20;99.90;;;;;;5091408;28;20188;-74
2022/12/04 10:58:38;;;;;;;36.30;20.90;;;2.30;99.90;;;;;;5093187;28;20647;-74
2022/12/04 11:01:08;;;;;;;36.20;20.93;;;2.30;99.90;;;;;;5082569;28;20197;-74
2022/12/04 11:03:35;;;;;;;33.50;18.97;;;2.30;99.90;;;;;;5073214;28;20197;-74
2022/12/04 11:06:05;;;;;;;30.67;18.63;;;2.30;99.90;;;;;;5090846;28;20221;-75
2022/12/04 11:08:37;;;;;;;29.27;17.13;;;2.30;99.90;;;;;;5113698;28;20736;-78
2022/12/04 11:11:06;;;;;;;28.90;17.57;;;2.40;99.90;;;;;;5110331;28;20279;-75
2022/12/04 11:13:33;;;;;;;27.20;15.80;;;2.40;99.90;;;;;;5072225;28;20221;-73
2022/12/04 11:16:00;;;;;;;25.50;13.67;;;2.40;99.90;;;;;;5072781;28;20218;-77
2022/12/04 11:18:29;;;;;;;24.47;14.60;;;2.50;99.90;;;;;;5073505;28;20205;-79
2022/12/04 11:20:59;;;;;;;26.60;14.87;;;2.50;99.90;;;;;;5071904;28;20210;-75
2022/12/04 11:23:27;;;;;;;25.10;15.07;;;2.50;99.90;;;;;;5072826;28;20197;-75
2022/12/04 11:25:57;;;;;;;26.97;14.53;;;2.60;99.90;;;;;;5080944;28;20287;-77
2022/12/04 11:28:29;;;;;;;24.73;15.17;;;2.60;99.90;;;;;;5092108;28;20229;-79
2022/12/04 11:30:58;;;;;;;25.43;13.53;;;2.60;99.90;;;;;;5091564;28;20631;-79
2022/12/04 11:33:29;;;;;;;25.47;14.27;;;2.60;99.90;;;;;;5093334;28;20208;-76
2022/12/04 11:36:01;;;;;;;27.30;15.10;;;2.60;99.90;;;;;;5092495;28;20189;-75
2022/12/04 11:38:30;;;;;;;24.30;13.63;;;2.50;99.90;;;;;;5090527;28;20201;-75
2022/12/04 11:40:59;;;;;;;22.40;13.37;;;2.50;99.90;;;;;;5092587;28;20201;-76
2022/12/04 11:43:28;;;;;;;23.00;14.73;;;2.50;99.90;;;;;;5074710;28;20502;-77
2022/12/04 11:45:57;;;;;;;24.77;14.23;;;2.50;99.90;;;;;;5071971;28;20821;-77
2022/12/04 11:48:24;;;;;;;25.17;14.23;;;2.40;99.90;;;;;;5072662;28;20620;-77
2022/12/04 11:50:59;;;;;;;30.30;16.27;;;2.40;99.90;;;;;;5076040;28;20228;-77
2022/12/04 11:53:36;;;;;;;34.07;17.13;;;2.50;99.90;;;;;;5092185;28;20207;-76
2022/12/04 11:56:17;;;;;;;27.43;16.83;;;2.40;99.90;;;;;;5090425;28;20192;-76
2022/12/04 11:58:57;;;;;;;31.40;18.07;;;2.50;99.90;;;;;;5090930;28;20211;-78
2022/12/04 12:01:37;;;;;;;31.50;18.07;;;2.50;99.90;;;;;;5072093;28;20197;-78
2022/12/04 12:04:26;;;;;;;28.87;17.73;;;2.40;99.90;;;;;;5072556;28;20193;-79
2022/12/04 12:07:03;;;;;;;27.50;16.40;;;2.40;99.90;;;;;;5071945;28;20643;-76
2022/12/04 12:09:38;;;;;;;30.23;16.87;;;2.40;99.90;;;;;;5072200;28;20346;-76
2022/12/04 12:12:12;;;;;;;30.50;16.83;;;2.40;99.90;;;;;;5072342;28;20231;-81
2022/12/04 12:14:50;;;;;;;32.40;18.30;;;2.40;99.90;;;;;;5072311;28;20225;-78
2022/12/04 12:17:23;;;;;;;27.00;15.80;;;2.40;99.90;;;;;;5071029;28;20216;-79
2022/12/04 12:20:03;;;;;;;32.73;18.30;;;2.40;99.90;;;;;;5071495;28;20573;-81
2022/12/04 12:22:57;;;;;;;29.70;16.77;;;2.40;99.90;;;;;;5084697;28;20210;-80
2022/12/04 12:25:32;;;;;;;32.50;18.27;;;2.40;99.90;;;;;;5092406;28;20189;-77
2022/12/04 12:28:15;;;;;;;35.23;17.90;;;2.40;99.90;;;;;;5072629;28;20232;-76
2022/12/04 12:30:57;;;;;;;35.90;17.23;;;2.30;99.90;;;;;;5071924;28;20581;-78
2022/12/04 12:33:28;;;;;;;30.60;17.50;;;2.30;99.90;;;;;;5072001;28;20211;-77
2022/12/04 12:36:00;;;;;;;31.67;17.37;;;2.30;99.90;;;;;;5072023;28;20573;-82
2022/12/04 12:38:33;;;;;;;30.27;17.03;;;2.30;99.90;;;;;;5071374;28;20209;-81
2022/12/04 12:41:04;;;;;;;27.07;16.70;;;2.30;99.90;;;;;;5073511;28;20297;-81
2022/12/04 12:43:35;;;;;;;27.50;16.70;;;2.30;99.90;;;;;;5072779;28;20186;-78
2022/12/04 12:46:07;;;;;;;29.87;16.43;;;2.30;99.90;;;;;;5071913;28;20205;-78
2022/12/04 12:48:41;;;;;;;31.23;17.53;;;2.30;99.90;;;;;;5072277;28;20185;-81
2022/12/04 12:51:20;;;;;;;28.83;16.67;;;2.30;99.90;;;;;;5072236;28;20284;-79
2022/12/04 12:53:52;;;;;;;28.63;16.83;;;2.40;99.90;;;;;;5071637;28;20247;-81
2022/12/04 12:56:22;;;;;;;32.30;18.23;;;2.30;99.90;;;;;;5072822;28;20197;-80
2022/12/04 12:58:56;;;;;;;30.37;17.27;;;2.40;99.90;;;;;;5073000;28;20205;-81
2022/12/04 13:01:42;;;;;;;29.67;19.30;;;2.40;99.90;;;;;;5072908;28;20189;-83